createdAt,value
2022-08-05T00:02:07.984Z,5.10
2022-08-05T00:04:37.776Z,8.35
2022-08-05T00:07:27.308Z,7.90
2022-08-05T00:09:52.790Z,8.70
2022-08-05T00:12:20.849Z,6.93
2022-08-05T00:14:48.247Z,5.45
2022-08-05T00:17:19.342Z,10.02
2022-08-05T00:20:01.991Z,6.97
2022-08-05T00:22:29.096Z,8.15
2022-08-05T00:24:57.161Z,7.30
2022-08-05T00:27:28.393Z,7.65
2022-08-05T00:30:03.245Z,4.50
2022-08-05T00:32:29.725Z,7.00
2022-08-05T00:35:06.804Z,4.78
2022-08-05T00:37:35.720Z,8.00
2022-08-05T00:40:28.002Z,8.63
2022-08-05T00:42:55.149Z,6.68
2022-08-05T00:45:28.382Z,5.88
2022-08-05T00:48:06.095Z,11.18
2022-08-05T00:50:33.226Z,5.55
2022-08-05T00:52:59.459Z,6.28
2022-08-05T00:55:34.122Z,5.50
2022-08-05T00:58:11.348Z,7.18
2022-08-05T01:00:37.794Z,6.90
2022-08-05T01:03:07.643Z,8.60
2022-08-05T01:05:34.359Z,9.73
2022-08-05T01:08:42.574Z,7.93
2022-08-05T01:10:52.384Z,6.22
2022-08-05T01:13:19.499Z,8.68
2022-08-05T01:15:48.581Z,9.73
2022-08-05T01:18:14.795Z,6.65
2022-08-05T01:20:41.956Z,6.93
2022-08-05T01:23:14.409Z,6.75
2022-08-05T01:25:41.766Z,8.60
2022-08-05T01:28:08.741Z,6.32
2022-08-05T01:30:35.282Z,8.30
2022-08-05T01:33:01.540Z,6.32
2022-08-05T01:35:51.722Z,6.55
2022-08-05T01:38:24.806Z,7.05
2022-08-05T01:40:53.934Z,9.23
2022-08-05T01:43:22.336Z,9.88
2022-08-05T01:45:56.071Z,8.60
2022-08-05T01:48:23.102Z,6.38
2022-08-05T01:50:51.046Z,7.63
2022-08-05T01:53:17.594Z,7.75
2022-08-05T01:56:04.462Z,7.43
2022-08-05T01:58:45.120Z,5.72
2022-08-05T02:01:11.721Z,8.23
2022-08-05T02:03:37.973Z,8.85
2022-08-05T02:06:33.623Z,9.48
2022-08-05T02:08:58.425Z,9.80
2022-08-05T02:11:33.099Z,8.02
2022-08-05T02:14:00.137Z,7.65
2022-08-05T02:16:27.898Z,11.05
2022-08-05T02:18:54.928Z,11.02
2022-08-05T02:21:21.687Z,9.20
2022-08-05T02:23:48.436Z,6.82
2022-08-05T02:26:14.876Z,8.50
2022-08-05T02:28:45.684Z,10.20
2022-08-05T02:31:14.627Z,7.47
2022-08-05T02:33:41.178Z,8.67
2022-08-05T02:36:09.307Z,8.27
2022-08-05T02:38:35.785Z,10.15
2022-08-05T02:41:14.621Z,9.18
2022-08-05T02:44:02.359Z,13.30
2022-08-05T02:46:30.355Z,9.10
2022-08-05T02:48:56.645Z,7.18
2022-08-05T02:51:28.144Z,15.73
2022-08-05T02:54:09.069Z,11.77
2022-08-05T02:56:55.308Z,9.52
2022-08-05T02:59:22.207Z,7.82
2022-08-05T03:01:53.496Z,7.32
2022-08-05T03:04:19.748Z,13.73
2022-08-05T03:09:36.315Z,13.10
2022-08-05T03:12:04.151Z,11.40
2022-08-05T03:14:30.365Z,11.90
2022-08-05T03:16:56.906Z,13.45
2022-08-05T03:19:34.661Z,10.98
2022-08-05T03:22:04.647Z,15.18
2022-08-05T03:24:31.387Z,12.20
2022-08-05T03:26:59.981Z,9.95
2022-08-05T03:29:44.606Z,8.88
2022-08-05T03:32:12.355Z,8.07
2022-08-05T03:34:40.739Z,9.60
2022-08-05T03:37:06.969Z,12.77
2022-08-05T03:39:38.109Z,11.00
2022-08-05T03:42:13.555Z,12.80
2022-08-05T03:44:42.305Z,12.68
2022-08-05T03:47:08.536Z,11.00
2022-08-05T03:49:51.566Z,9.73
2022-08-05T03:52:38.088Z,9.15
2022-08-05T03:56:01.993Z,11.15
2022-08-05T03:57:50.949Z,9.80
2022-08-05T04:00:17.204Z,7.93
2022-08-05T04:02:52.019Z,10.10
2022-08-05T04:05:24.480Z,14.32
2022-08-05T04:10:25.257Z,10.88
2022-08-05T04:12:54.226Z,24.38
2022-08-05T04:15:21.068Z,11.15
2022-08-05T04:20:23.680Z,12.55
2022-08-05T04:22:49.914Z,10.80
2022-08-05T04:25:16.784Z,8.00
2022-08-05T04:27:57.409Z,10.60
2022-08-05T04:30:26.566Z,9.18
2022-08-05T04:32:52.945Z,12.95
2022-08-05T04:35:19.684Z,17.73
2022-08-05T04:38:02.424Z,9.75
2022-08-05T04:40:32.456Z,14.25
2022-08-05T04:42:58.739Z,12.70
2022-08-05T04:45:47.766Z,9.63
2022-08-05T04:48:18.519Z,15.95
2022-08-05T04:51:02.654Z,9.95
2022-08-05T04:53:29.392Z,18.25
2022-08-05T04:56:14.875Z,13.60
2022-08-05T04:58:46.169Z,15.68
2022-08-05T05:01:13.253Z,10.90
2022-08-05T05:03:42.094Z,10.85
2022-08-05T05:06:40.723Z,10.80
2022-08-05T05:08:55.228Z,14.95
2022-08-05T05:11:21.709Z,9.98
2022-08-05T05:14:08.717Z,11.45
2022-08-05T05:16:42.482Z,11.48
2022-08-05T05:19:19.329Z,8.70
2022-08-05T05:21:49.651Z,8.65
2022-08-05T05:24:21.935Z,11.90
2022-08-05T05:26:48.162Z,8.88
2022-08-05T05:29:18.228Z,8.65
2022-08-05T05:31:46.549Z,9.43
2022-08-05T05:34:12.878Z,7.43
2022-08-05T05:36:41.813Z,11.27
2022-08-05T05:39:09.470Z,7.15
2022-08-05T05:41:40.327Z,11.37
2022-08-05T05:44:15.709Z,18.00
2022-08-05T05:46:54.062Z,11.00
2022-08-05T05:49:23.296Z,11.07
2022-08-05T05:51:50.685Z,14.68
2022-08-05T05:54:17.165Z,17.77
2022-08-05T05:56:43.453Z,10.60
2022-08-05T05:59:09.717Z,12.52
2022-08-05T06:01:37.506Z,9.65
2022-08-05T06:04:04.875Z,8.43
2022-08-05T06:06:33.181Z,8.20
2022-08-05T06:09:01.124Z,13.10
2022-08-05T06:11:28.822Z,15.88
2022-08-05T06:13:55.553Z,16.35
2022-08-05T06:16:28.928Z,10.77
2022-08-05T06:19:00.034Z,8.35
2022-08-05T06:21:37.237Z,7.53
2022-08-05T06:24:04.230Z,12.55
2022-08-05T06:26:31.856Z,10.00
2022-08-05T06:29:00.247Z,10.95
2022-08-05T06:34:07.650Z,9.57
2022-08-05T06:36:56.778Z,10.65
2022-08-05T06:39:21.734Z,24.35
2022-08-05T06:41:48.380Z,26.20
2022-08-05T06:44:14.845Z,10.60
2022-08-05T06:46:41.663Z,15.27
2022-08-05T06:49:08.818Z,11.23
2022-08-05T06:51:40.783Z,10.88
2022-08-05T06:54:07.235Z,10.38
2022-08-05T06:56:35.140Z,6.55
2022-08-05T06:59:01.594Z,7.75
2022-08-05T07:01:32.340Z,11.90
2022-08-05T07:03:59.184Z,9.02
2022-08-05T07:06:25.672Z,9.05
2022-08-05T07:08:55.114Z,4.97
2022-08-05T07:11:22.553Z,13.07
2022-08-05T07:13:58.681Z,4.68
2022-08-05T07:17:56.999Z,6.90
2022-08-05T07:19:16.025Z,14.40
2022-08-05T07:22:01.149Z,7.65
2022-08-05T07:24:28.942Z,4.95
2022-08-05T07:26:56.485Z,6.28
2022-08-05T07:29:25.381Z,6.88
2022-08-05T07:32:09.128Z,5.72
2022-08-05T07:34:40.472Z,11.18
2022-08-05T07:37:08.476Z,8.23
2022-08-05T07:40:26.360Z,7.63
2022-08-05T07:42:31.699Z,8.10
2022-08-05T07:45:00.477Z,5.78
2022-08-05T07:47:26.847Z,10.65
2022-08-05T07:49:54.486Z,8.82
2022-08-05T07:52:21.362Z,10.65
2022-08-05T07:54:50.228Z,12.38
2022-08-05T07:57:55.155Z,9.40
2022-08-05T08:00:05.641Z,14.90
2022-08-05T08:03:15.375Z,5.88
2022-08-05T08:05:24.065Z,5.28
2022-08-05T08:08:00.201Z,5.35
2022-08-05T08:10:27.103Z,7.47
2022-08-05T08:12:53.374Z,5.45
2022-08-05T08:15:37.441Z,7.30
2022-08-05T08:18:09.738Z,9.73
2022-08-05T08:21:00.162Z,4.13
2022-08-05T08:24:02.165Z,6.13
2022-08-05T08:26:13.413Z,4.75
2022-08-05T08:28:55.164Z,9.15
2022-08-05T08:31:27.014Z,5.82
2022-08-05T08:33:53.488Z,13.82
2022-08-05T08:36:38.708Z,4.85
2022-08-05T08:39:06.107Z,8.43
2022-08-05T08:41:50.921Z,10.60
2022-08-05T08:45:22.491Z,5.80
2022-08-05T08:47:47.514Z,3.58
2022-08-05T08:50:22.322Z,8.25
2022-08-05T08:52:38.034Z,7.53
2022-08-05T08:55:04.263Z,9.50
2022-08-05T08:57:48.335Z,5.72
2022-08-05T09:00:24.282Z,11.82
2022-08-05T09:02:52.555Z,4.40
2022-08-05T09:05:18.920Z,5.55
2022-08-05T09:08:05.193Z,5.50
2022-08-05T09:10:31.483Z,2.78
2022-08-05T09:13:04.942Z,9.02
2022-08-05T09:15:31.583Z,6.32
2022-08-05T09:18:03.354Z,4.35
2022-08-05T09:20:37.451Z,5.47
2022-08-05T09:23:05.304Z,10.05
2022-08-05T09:26:01.064Z,3.30
2022-08-05T09:28:20.997Z,5.25
2022-08-05T09:30:47.552Z,3.97
2022-08-05T09:33:17.166Z,9.30
2022-08-05T09:35:43.514Z,4.45
2022-08-05T09:38:16.620Z,4.60
2022-08-05T09:40:52.386Z,8.88
2022-08-05T09:43:19.793Z,6.15
2022-08-05T09:46:07.169Z,5.22
2022-08-05T09:48:32.850Z,7.38
2022-08-05T09:50:59.285Z,14.02
2022-08-05T09:53:54.763Z,4.53
2022-08-05T09:56:14.122Z,7.47
2022-08-05T09:58:41.811Z,3.05
2022-08-05T10:01:15.254Z,7.15
2022-08-05T10:03:56.826Z,7.75
2022-08-05T10:06:26.012Z,4.75
2022-08-05T10:08:54.087Z,3.45
2022-08-05T10:11:21.905Z,5.05
2022-08-05T10:13:49.500Z,6.57
2022-08-05T10:16:20.813Z,6.93
2022-08-05T10:18:48.114Z,6.72
2022-08-05T10:21:16.292Z,7.45
2022-08-05T10:23:59.107Z,6.88
2022-08-05T10:26:32.541Z,8.13
2022-08-05T10:29:00.292Z,6.43
2022-08-05T10:32:53.997Z,6.97
2022-08-05T10:34:13.991Z,5.18
2022-08-05T10:36:40.637Z,3.60
2022-08-05T10:39:11.658Z,8.18
2022-08-05T10:41:46.620Z,3.70
2022-08-05T10:44:13.676Z,3.97
2022-08-05T10:46:40.654Z,6.22
2022-08-05T10:49:10.075Z,2.90
2022-08-05T10:51:36.885Z,9.00
2022-08-05T10:54:29.943Z,4.60
2022-08-05T10:56:59.025Z,3.45
2022-08-05T11:00:02.878Z,6.05
2022-08-05T11:02:14.217Z,4.57
2022-08-05T11:04:58.483Z,7.47
2022-08-05T11:07:33.097Z,5.60
2022-08-05T11:10:12.767Z,4.70
2022-08-05T11:12:41.288Z,6.05
2022-08-05T11:15:19.026Z,6.15
2022-08-05T11:17:57.725Z,7.78
2022-08-05T11:20:27.265Z,5.57
2022-08-05T11:22:58.050Z,3.78
2022-08-05T11:26:04.215Z,4.30
2022-08-05T11:28:17.291Z,6.35
2022-08-05T11:30:43.881Z,2.60
2022-08-05T11:33:19.749Z,2.42
2022-08-05T11:36:08.042Z,8.38
2022-08-05T11:38:45.211Z,3.50
2022-08-05T11:41:34.329Z,3.63
2022-08-05T11:44:06.621Z,7.57
2022-08-05T11:46:34.335Z,3.63
2022-08-05T11:49:01.327Z,5.68
2022-08-05T11:51:44.014Z,7.70
2022-08-05T11:54:14.227Z,7.00
2022-08-05T11:56:41.288Z,7.40
2022-08-05T11:59:13.846Z,6.40
2022-08-05T12:01:40.462Z,4.97
2022-08-05T12:04:06.718Z,6.70
2022-08-05T12:06:32.948Z,8.20
2022-08-05T12:08:59.557Z,8.40
2022-08-05T12:11:28.252Z,6.57
2022-08-05T12:14:06.428Z,8.18
2022-08-05T12:16:33.573Z,4.65
2022-08-05T12:19:04.963Z,3.20
2022-08-05T12:21:39.165Z,3.55
2022-08-05T12:24:07.063Z,9.73
2022-08-05T12:26:33.786Z,5.07
2022-08-05T12:29:01.482Z,3.58
2022-08-05T12:31:40.657Z,4.80
2022-08-05T12:34:14.649Z,7.03
2022-08-05T12:36:48.100Z,5.75
2022-08-05T12:39:14.521Z,5.50
2022-08-05T12:41:43.731Z,3.30
2022-08-05T12:44:11.625Z,7.25
2022-08-05T12:46:40.913Z,4.97
2022-08-05T12:49:13.566Z,6.80
2022-08-05T12:52:12.660Z,6.78
2022-08-05T12:54:26.851Z,5.35
2022-08-05T12:56:53.156Z,12.73
2022-08-05T12:59:21.082Z,6.15
2022-08-05T13:02:02.133Z,5.95
2022-08-05T13:04:32.885Z,6.80
2022-08-05T13:06:59.471Z,8.35
2022-08-05T13:09:27.878Z,8.45
2022-08-05T13:12:01.661Z,9.07
2022-08-05T13:14:36.128Z,9.27
2022-08-05T13:17:03.073Z,8.43
2022-08-05T13:19:51.710Z,4.85
2022-08-05T13:22:27.712Z,7.93
2022-08-05T13:27:38.402Z,9.23
2022-08-05T13:30:33.774Z,8.93
2022-08-05T13:32:51.392Z,7.38
2022-08-05T13:35:22.108Z,11.40
2022-08-05T13:37:55.352Z,3.45
2022-08-05T13:40:36.519Z,5.53
2022-08-05T13:43:12.088Z,4.47
2022-08-05T13:45:43.193Z,2.95
2022-08-05T13:48:57.793Z,3.85
2022-08-05T13:50:55.986Z,3.53
2022-08-05T13:53:22.498Z,9.32
2022-08-05T13:55:57.608Z,6.72
2022-08-05T13:58:31.023Z,3.83
2022-08-05T14:00:57.451Z,7.68
2022-08-05T14:03:24.132Z,5.22
2022-08-05T14:06:25.986Z,9.15
2022-08-05T14:08:37.008Z,9.55
2022-08-05T14:11:20.185Z,4.25
2022-08-05T14:13:48.134Z,3.72
2022-08-05T14:16:16.614Z,4.97
2022-08-05T14:18:43.670Z,4.75
2022-08-05T14:22:07.280Z,7.97
2022-08-05T14:23:56.497Z,8.70
2022-08-05T14:26:37.013Z,4.95
2022-08-05T14:29:11.892Z,6.95
2022-08-05T14:32:03.971Z,3.10
2022-08-05T14:34:29.651Z,6.97
2022-08-05T14:37:01.931Z,7.25
2022-08-05T14:39:30.612Z,4.68
2022-08-05T14:42:19.497Z,5.20
2022-08-05T14:44:48.071Z,5.78
2022-08-05T14:47:14.557Z,7.60
2022-08-05T14:49:59.610Z,3.38
2022-08-05T14:52:51.914Z,3.50
2022-08-05T14:55:15.421Z,6.10
2022-08-05T14:57:54.508Z,4.22
2022-08-05T15:00:28.056Z,3.92
2022-08-05T15:02:55.957Z,6.40
2022-08-05T15:05:22.457Z,4.95
2022-08-05T15:08:12.140Z,6.72
2022-08-05T15:10:43.199Z,3.10
2022-08-05T15:13:12.577Z,5.60
2022-08-05T15:15:54.452Z,5.43
2022-08-05T15:18:22.571Z,8.40
2022-08-05T15:20:49.523Z,5.13
2022-08-05T15:23:15.865Z,5.93
2022-08-05T15:25:51.888Z,5.18
2022-08-05T15:28:20.368Z,4.95
2022-08-05T15:30:53.031Z,8.02
2022-08-05T15:34:04.084Z,4.57
2022-08-05T15:36:06.115Z,5.93
2022-08-05T15:38:43.818Z,6.15
2022-08-05T15:41:22.228Z,5.65
2022-08-05T15:43:49.986Z,9.32
2022-08-05T15:46:16.384Z,8.52
2022-08-05T15:48:52.713Z,8.48
2022-08-05T15:51:24.199Z,5.75
2022-08-05T15:54:10.455Z,6.03
2022-08-05T15:56:41.679Z,4.68
2022-08-05T15:59:07.905Z,5.93
2022-08-05T16:01:39.898Z,7.30
2022-08-05T16:04:19.492Z,5.55
2022-08-05T16:06:45.891Z,9.70
2022-08-05T16:09:12.254Z,11.75
2022-08-05T16:11:43.480Z,8.05
2022-08-05T16:14:10.033Z,10.45
2022-08-05T16:16:43.841Z,9.45
2022-08-05T16:19:12.527Z,7.38
2022-08-05T16:22:00.484Z,5.20
2022-08-05T16:24:39.600Z,7.40
2022-08-05T16:27:07.515Z,10.38
2022-08-05T16:29:37.023Z,7.07
2022-08-05T16:32:04.178Z,5.88
2022-08-05T16:34:30.989Z,7.90
2022-08-05T16:36:57.341Z,8.32
2022-08-05T16:40:05.281Z,4.90
2022-08-05T16:42:15.253Z,6.13
2022-08-05T16:44:44.344Z,9.80
2022-08-05T16:47:28.812Z,9.35
2022-08-05T16:50:02.331Z,7.47
2022-08-05T16:52:32.729Z,6.85
2022-08-05T16:55:00.168Z,6.60
2022-08-05T16:57:39.925Z,7.25
2022-08-05T17:00:14.083Z,7.13
2022-08-05T17:02:40.566Z,11.02
2022-08-05T17:05:06.948Z,12.52
2022-08-05T17:07:43.626Z,9.70
2022-08-05T17:10:19.420Z,7.82
2022-08-05T17:12:51.739Z,5.30
2022-08-05T17:15:19.452Z,7.82
2022-08-05T17:17:48.941Z,10.43
2022-08-05T17:20:21.604Z,8.27
2022-08-05T17:22:55.156Z,5.78
2022-08-05T17:25:33.487Z,7.38
2022-08-05T17:28:05.475Z,11.30
2022-08-05T17:30:31.745Z,9.90
2022-08-05T17:32:58.385Z,8.20
2022-08-05T17:35:24.858Z,11.55
2022-08-05T17:38:00.438Z,9.50
2022-08-05T17:40:31.495Z,12.40
2022-08-05T17:42:57.910Z,9.02
2022-08-05T17:45:24.158Z,9.00
2022-08-05T17:47:54.350Z,8.15
2022-08-05T17:50:27.643Z,5.25
2022-08-05T17:52:56.307Z,4.85
2022-08-05T17:55:22.617Z,7.20
2022-08-05T17:57:53.818Z,6.35
2022-08-05T18:00:20.113Z,6.03
2022-08-05T18:02:54.920Z,4.03
2022-08-05T18:05:21.648Z,3.28
2022-08-05T18:07:48.088Z,4.75
2022-08-05T18:10:21.050Z,1.75
2022-08-05T18:12:47.745Z,1.70
2022-08-05T18:15:13.969Z,1.80
2022-08-05T18:18:01.355Z,0.85
2022-08-05T18:20:29.363Z,0.73
2022-08-05T18:22:58.439Z,0.90
2022-08-05T18:25:33.062Z,2.47
2022-08-05T18:27:59.570Z,1.17
2022-08-05T18:30:28.053Z,1.88
2022-08-05T18:33:00.496Z,5.20
2022-08-05T18:35:49.329Z,1.15
2022-08-05T18:38:13.644Z,1.95
2022-08-05T18:41:57.398Z,0.63
2022-08-05T18:43:31.730Z,0.43
2022-08-05T18:46:04.456Z,1.13
2022-08-05T18:48:33.372Z,0.90
2022-08-05T18:51:01.518Z,0.63
2022-08-05T18:53:28.163Z,0.73
2022-08-05T18:55:54.654Z,1.13
2022-08-05T18:58:27.101Z,2.03
2022-08-05T19:00:55.257Z,0.40
2022-08-05T19:03:53.148Z,1.27
2022-08-05T19:06:18.559Z,1.92
2022-08-05T19:08:48.731Z,1.25
2022-08-05T19:11:15.538Z,2.05
2022-08-05T19:13:48.267Z,0.43
2022-08-05T19:16:28.607Z,0.45
2022-08-05T19:18:56.934Z,1.85
2022-08-05T19:21:23.306Z,2.00
2022-08-05T19:24:05.771Z,1.23
2022-08-05T19:26:35.055Z,3.22
2022-08-05T19:29:12.075Z,1.13
2022-08-05T19:31:44.999Z,2.35
2022-08-05T19:34:18.608Z,1.05
2022-08-05T19:36:45.211Z,2.78
2022-08-05T19:39:13.638Z,1.02
2022-08-05T19:42:07.220Z,1.50
2022-08-05T19:44:30.186Z,2.08
2022-08-05T19:46:56.502Z,3.03
2022-08-05T19:49:24.020Z,7.20
2022-08-05T19:52:13.240Z,1.80
2022-08-05T19:54:37.200Z,3.03
2022-08-05T19:57:08.374Z,2.25
2022-08-05T19:59:55.072Z,2.28
2022-08-05T20:02:22.567Z,3.75
2022-08-05T20:04:49.374Z,1.98
2022-08-05T20:07:45.987Z,2.00
2022-08-05T20:10:04.974Z,2.95
2022-08-05T20:12:39.794Z,1.85
2022-08-05T20:15:14.711Z,1.77
2022-08-05T20:17:40.953Z,3.45
2022-08-05T20:20:10.944Z,5.38
2022-08-05T20:22:37.487Z,2.08
2022-08-05T20:25:07.807Z,4.50
2022-08-05T20:27:41.870Z,2.28
2022-08-05T20:30:08.474Z,4.13
2022-08-05T20:32:34.735Z,2.88
2022-08-05T20:35:02.454Z,4.28
2022-08-05T20:38:07.858Z,2.40
2022-08-05T20:40:14.900Z,3.08
2022-08-05T20:42:44.203Z,7.35
2022-08-05T20:45:10.425Z,5.38
2022-08-05T20:47:40.094Z,2.10
2022-08-05T20:50:07.501Z,4.20
2022-08-05T20:52:34.136Z,1.88
2022-08-05T20:55:56.779Z,4.30
2022-08-05T20:57:46.856Z,4.28
2022-08-05T21:00:41.006Z,2.42
2022-08-05T21:03:01.702Z,6.05
2022-08-05T21:05:37.994Z,2.67
2022-08-05T21:08:14.251Z,4.47
2022-08-05T21:10:40.484Z,7.25
2022-08-05T21:13:26.585Z,4.30
2022-08-05T21:16:01.651Z,4.50
2022-08-05T21:18:29.896Z,5.22
2022-08-05T21:20:56.964Z,4.40
2022-08-05T21:23:23.207Z,4.65
2022-08-05T21:25:50.333Z,4.57
2022-08-05T21:28:18.607Z,1.63
2022-08-05T21:30:45.071Z,3.67
2022-08-05T21:33:22.313Z,3.00
2022-08-05T21:35:58.444Z,5.30
2022-08-05T21:38:25.446Z,3.42
2022-08-05T21:40:51.669Z,2.55
2022-08-05T21:43:24.522Z,2.63
2022-08-05T21:45:56.277Z,7.60
2022-08-05T21:48:23.325Z,3.88
2022-08-05T21:50:53.131Z,4.93
2022-08-05T21:53:20.832Z,3.90
2022-08-05T21:56:05.182Z,2.47
2022-08-05T21:58:32.775Z,2.50
2022-08-05T22:00:59.104Z,6.88
2022-08-05T22:03:51.835Z,2.60
2022-08-05T22:06:11.660Z,1.55
2022-08-05T22:08:37.943Z,4.50
2022-08-05T22:11:09.190Z,4.28
2022-08-05T22:14:06.168Z,9.63
2022-08-05T22:16:41.187Z,3.47
2022-08-05T22:19:56.127Z,1.90
2022-08-05T22:21:55.384Z,2.78
2022-08-05T22:24:40.486Z,4.30
2022-08-05T22:27:10.919Z,3.45
2022-08-05T22:29:40.393Z,2.38
2022-08-05T22:32:10.077Z,5.00
2022-08-05T22:34:36.471Z,2.10
2022-08-05T22:37:03.860Z,5.68
2022-08-05T22:39:33.685Z,1.90
2022-08-05T22:42:11.190Z,5.20
2022-08-05T22:44:39.232Z,4.38
2022-08-05T22:47:06.666Z,3.13
2022-08-05T22:50:21.869Z,4.88
2022-08-05T22:52:30.678Z,2.20
2022-08-05T22:55:00.654Z,4.88
2022-08-05T22:57:26.922Z,2.47
2022-08-05T23:00:00.511Z,2.95
2022-08-05T23:02:30.151Z,3.22
2022-08-05T23:04:56.613Z,3.00
2022-08-05T23:07:23.049Z,22.13
2022-08-05T23:09:58.069Z,4.55
2022-08-05T23:12:28.680Z,2.95
2022-08-05T23:14:55.170Z,2.50
2022-08-05T23:17:24.523Z,4.55
2022-08-05T23:19:59.188Z,2.95
2022-08-05T23:22:27.398Z,4.03
2022-08-05T23:24:54.071Z,2.17
2022-08-05T23:27:20.319Z,5.90
2022-08-05T23:29:48.995Z,2.25
2022-08-05T23:32:16.995Z,1.85
2022-08-05T23:34:49.272Z,7.10
2022-08-05T23:37:17.023Z,4.28
2022-08-05T23:39:53.465Z,3.65
2022-08-05T23:42:23.354Z,1.10
2022-08-05T23:44:54.275Z,2.70
2022-08-05T23:47:20.899Z,1.85
2022-08-05T23:49:51.993Z,4.35
2022-08-05T23:52:21.744Z,2.72
2022-08-05T23:57:17.882Z,5.68
